createdAt,value
2023-05-19T00:01:39.042Z,41.80
2023-05-19T00:04:10.492Z,35.75
2023-05-19T00:06:42.937Z,35.60
2023-05-19T00:09:14.103Z,34.30
2023-05-19T00:11:45.021Z,37.95
2023-05-19T00:14:16.391Z,35.22
2023-05-19T00:16:47.490Z,29.10
2023-05-19T00:19:19.134Z,38.42
2023-05-19T00:21:51.459Z,36.20
2023-05-19T00:24:22.474Z,29.55
2023-05-19T00:26:53.358Z,27.63
2023-05-19T00:29:24.512Z,28.80
2023-05-19T00:31:56.413Z,29.10
2023-05-19T00:34:30.187Z,31.23
2023-05-19T00:37:01.064Z,23.98
2023-05-19T00:39:32.491Z,29.83
2023-05-19T00:42:04.338Z,22.58
2023-05-19T00:44:35.466Z,33.38
2023-05-19T00:47:06.525Z,28.15
2023-05-19T00:49:38.372Z,17.58
2023-05-19T00:52:09.632Z,12.23
2023-05-19T00:54:42.509Z,12.52
2023-05-19T00:57:23.121Z,12.02
2023-05-19T00:59:54.723Z,12.13
2023-05-19T01:02:25.910Z,13.83
2023-05-19T01:04:58.816Z,11.35
2023-05-19T01:07:30.522Z,12.95
2023-05-19T01:10:01.889Z,11.88
2023-05-19T01:12:33.386Z,10.75
2023-05-19T01:15:06.946Z,9.52
2023-05-19T01:20:27.354Z,9.88
2023-05-19T01:23:41.512Z,14.80
2023-05-19T01:26:30.644Z,12.82
2023-05-19T01:29:18.931Z,10.10
2023-05-19T01:31:51.869Z,9.35
2023-05-19T01:34:25.430Z,9.30
2023-05-19T01:36:57.729Z,9.50
2023-05-19T01:42:00.406Z,9.57
2023-05-19T01:44:33.494Z,10.25
2023-05-19T01:47:05.727Z,10.40
2023-05-19T01:49:36.515Z,9.52
2023-05-19T01:52:08.179Z,9.60
2023-05-19T01:54:39.402Z,9.00
2023-05-19T01:57:33.946Z,9.00
2023-05-19T02:00:24.801Z,8.75
2023-05-19T02:03:00.616Z,8.75
2023-05-19T02:05:40.951Z,9.93
2023-05-19T02:08:36.155Z,8.88
2023-05-19T02:11:34.005Z,8.55
2023-05-19T02:14:34.829Z,8.73
2023-05-19T02:17:07.685Z,9.05
2023-05-19T02:19:44.143Z,12.35
2023-05-19T02:22:14.999Z,9.60
2023-05-19T02:24:47.862Z,9.07
2023-05-19T02:27:19.145Z,8.98
2023-05-19T02:29:50.529Z,9.23
2023-05-19T02:32:22.181Z,8.88
2023-05-19T02:34:54.613Z,9.00
2023-05-19T02:40:01.153Z,8.85
2023-05-19T02:42:33.224Z,8.68
2023-05-19T02:45:04.428Z,9.07
2023-05-19T02:47:37.160Z,8.85
2023-05-19T02:50:10.628Z,9.15
2023-05-19T02:52:41.777Z,8.57
2023-05-19T02:55:18.307Z,13.45
2023-05-19T02:57:49.715Z,8.32
2023-05-19T03:00:21.487Z,7.82
2023-05-19T03:02:54.470Z,8.35
2023-05-19T03:05:25.631Z,8.75
2023-05-19T03:07:56.670Z,8.02
2023-05-19T03:10:27.826Z,8.25
2023-05-19T03:12:58.859Z,7.90
2023-05-19T03:15:30.061Z,8.07
2023-05-19T03:18:01.052Z,7.93
2023-05-19T03:20:32.675Z,8.23
2023-05-19T03:23:04.022Z,8.70
2023-05-19T03:25:35.445Z,7.88
2023-05-19T03:28:07.039Z,9.90
2023-05-19T03:30:41.339Z,8.52
2023-05-19T03:33:19.662Z,8.50
2023-05-19T03:35:51.111Z,7.43
2023-05-19T03:41:01.504Z,7.90
2023-05-19T03:43:32.640Z,7.25
2023-05-19T03:46:07.315Z,7.55
2023-05-19T03:49:17.772Z,7.93
2023-05-19T03:52:07.111Z,8.43
2023-05-19T03:54:54.514Z,9.05
2023-05-19T03:57:26.158Z,7.93
2023-05-19T04:00:00.110Z,8.07
2023-05-19T04:02:38.274Z,7.70
2023-05-19T04:05:12.114Z,10.25
2023-05-19T04:07:44.421Z,8.80
2023-05-19T04:10:16.087Z,7.75
2023-05-19T04:12:47.743Z,7.55
2023-05-19T04:15:19.831Z,8.10
2023-05-19T04:17:51.333Z,7.65
2023-05-19T04:20:26.543Z,7.80
2023-05-19T04:22:59.176Z,8.38
2023-05-19T04:25:30.057Z,8.10
2023-05-19T04:28:02.392Z,8.63
2023-05-19T04:30:34.915Z,9.60
2023-05-19T04:33:06.203Z,7.13
2023-05-19T04:35:39.601Z,9.33
2023-05-19T04:38:13.748Z,7.45
2023-05-19T04:40:45.914Z,7.47
2023-05-19T04:43:17.284Z,8.30
2023-05-19T04:45:51.671Z,7.75
2023-05-19T04:48:26.130Z,7.82
2023-05-19T04:50:57.203Z,7.78
2023-05-19T04:53:28.242Z,9.07
2023-05-19T04:56:00.478Z,8.10
2023-05-19T04:58:33.371Z,7.53
2023-05-19T05:01:05.422Z,8.97
2023-05-19T05:03:39.602Z,8.77
2023-05-19T05:08:42.792Z,7.70
2023-05-19T05:11:33.659Z,8.60
2023-05-19T05:14:06.016Z,7.57
2023-05-19T05:16:37.783Z,8.20
2023-05-19T05:19:10.459Z,8.75
2023-05-19T05:21:42.890Z,8.13
2023-05-19T05:24:15.223Z,8.88
2023-05-19T05:26:52.166Z,8.50
2023-05-19T05:29:23.572Z,8.80
2023-05-19T05:31:54.716Z,8.57
2023-05-19T05:34:27.367Z,8.50
2023-05-19T05:36:59.157Z,8.27
2023-05-19T05:39:31.003Z,9.43
2023-05-19T05:42:02.417Z,7.85
2023-05-19T05:44:35.635Z,8.32
2023-05-19T05:47:08.582Z,8.27
2023-05-19T05:52:13.356Z,8.63
2023-05-19T05:54:49.550Z,8.60
2023-05-19T05:57:23.208Z,8.88
2023-05-19T05:59:54.905Z,9.10
2023-05-19T06:02:26.558Z,9.95
2023-05-19T06:04:58.638Z,9.52
2023-05-19T06:07:29.797Z,9.30
2023-05-19T06:10:01.204Z,9.57
2023-05-19T06:12:53.288Z,9.30
2023-05-19T06:15:26.244Z,9.18
2023-05-19T06:18:11.077Z,8.80
2023-05-19T06:20:43.494Z,10.73
2023-05-19T06:23:14.512Z,8.77
2023-05-19T06:25:45.792Z,9.80
2023-05-19T06:28:17.799Z,9.35
2023-05-19T06:33:28.224Z,9.20
2023-05-19T06:36:01.404Z,9.07
2023-05-19T06:38:33.902Z,10.45
2023-05-19T06:43:35.471Z,8.93
2023-05-19T06:46:07.578Z,9.60
2023-05-19T06:48:38.507Z,9.52
2023-05-19T06:51:11.662Z,9.60
2023-05-19T06:53:44.364Z,8.45
2023-05-19T06:56:16.970Z,9.77
2023-05-19T06:58:48.906Z,9.15
2023-05-19T07:01:20.436Z,8.73
2023-05-19T07:03:58.120Z,9.43
2023-05-19T07:06:29.704Z,9.60
2023-05-19T07:09:01.320Z,8.77
2023-05-19T07:11:33.712Z,9.88
2023-05-19T07:14:05.919Z,9.07
2023-05-19T07:16:37.457Z,9.27
2023-05-19T07:19:09.704Z,8.27
2023-05-19T07:21:41.347Z,8.68
2023-05-19T07:24:12.706Z,9.05
2023-05-19T07:26:44.271Z,8.85
2023-05-19T07:29:15.447Z,8.18
2023-05-19T07:31:47.230Z,8.57
2023-05-19T07:34:18.556Z,8.40
2023-05-19T07:39:21.574Z,9.13
2023-05-19T07:41:56.963Z,9.00
2023-05-19T07:44:28.671Z,9.63
2023-05-19T07:47:00.562Z,8.52
2023-05-19T07:49:31.674Z,7.95
2023-05-19T07:52:02.946Z,8.05
2023-05-19T07:54:33.968Z,8.30
2023-05-19T07:57:05.211Z,8.70
2023-05-19T07:59:36.124Z,7.97
2023-05-19T08:02:07.885Z,11.48
2023-05-19T08:04:41.781Z,7.53
2023-05-19T08:07:13.115Z,7.72
2023-05-19T08:09:44.304Z,8.02
2023-05-19T08:14:46.091Z,7.70
2023-05-19T08:17:17.680Z,8.07
2023-05-19T08:19:48.574Z,10.02
2023-05-19T08:22:19.866Z,7.40
2023-05-19T08:24:53.615Z,7.88
2023-05-19T08:27:25.450Z,7.55
2023-05-19T08:29:56.943Z,7.57
2023-05-19T08:32:29.255Z,7.60
2023-05-19T08:35:00.543Z,7.43
2023-05-19T08:37:34.212Z,7.30
2023-05-19T08:40:06.979Z,7.32
2023-05-19T08:42:38.431Z,7.35
2023-05-19T08:45:09.997Z,7.38
2023-05-19T08:47:47.634Z,8.57
2023-05-19T08:50:26.454Z,7.60
2023-05-19T08:53:33.015Z,7.35
2023-05-19T08:56:17.255Z,7.85
2023-05-19T08:58:50.027Z,7.82
2023-05-19T09:01:22.574Z,7.45
2023-05-19T09:03:54.490Z,7.50
2023-05-19T09:06:26.663Z,7.53
2023-05-19T09:08:58.139Z,9.70
2023-05-19T09:11:29.107Z,6.97
2023-05-19T09:14:00.414Z,6.97
2023-05-19T09:16:31.880Z,8.67
2023-05-19T09:19:03.301Z,7.40
2023-05-19T09:21:44.562Z,6.85
2023-05-19T09:24:15.920Z,6.63
2023-05-19T09:26:47.381Z,8.57
2023-05-19T09:31:53.836Z,12.50
2023-05-19T09:34:28.237Z,11.40
2023-05-19T09:37:01.256Z,11.30
2023-05-19T09:39:34.120Z,14.57
2023-05-19T09:42:08.295Z,14.77
2023-05-19T09:44:39.616Z,20.58
2023-05-19T09:47:12.550Z,22.93
2023-05-19T09:49:49.163Z,13.60
2023-05-19T09:52:20.443Z,20.08
2023-05-19T09:57:30.950Z,10.73
2023-05-19T10:00:09.987Z,10.65
2023-05-19T10:02:45.291Z,12.77
2023-05-19T10:05:24.093Z,11.38
2023-05-19T10:07:58.626Z,13.70
2023-05-19T10:10:30.255Z,10.95
2023-05-19T10:13:01.987Z,15.95
2023-05-19T10:15:36.195Z,12.00
2023-05-19T10:18:12.830Z,15.52
2023-05-19T10:20:45.560Z,9.40
2023-05-19T10:23:16.739Z,10.70
2023-05-19T10:25:50.611Z,12.68
2023-05-19T10:28:26.780Z,9.70
2023-05-19T10:31:03.531Z,9.93
2023-05-19T10:33:55.893Z,11.30
2023-05-19T10:36:50.383Z,11.80
2023-05-19T10:39:37.561Z,17.90
2023-05-19T10:42:21.136Z,14.93
2023-05-19T10:45:13.806Z,17.23
2023-05-19T10:47:45.860Z,20.02
2023-05-19T10:50:17.459Z,20.17
2023-05-19T10:52:59.339Z,22.30
2023-05-19T10:55:54.292Z,22.02
2023-05-19T10:58:46.663Z,26.80
2023-05-19T11:01:19.752Z,18.08
2023-05-19T11:03:53.899Z,12.65
2023-05-19T11:06:33.528Z,17.02
2023-05-19T11:09:15.549Z,18.90
2023-05-19T11:11:52.565Z,20.55
2023-05-19T11:14:31.061Z,16.67
2023-05-19T11:17:02.912Z,12.95
2023-05-19T11:19:36.982Z,22.10
2023-05-19T11:22:16.178Z,12.73
2023-05-19T11:24:53.731Z,17.50
2023-05-19T11:27:36.340Z,16.70
2023-05-19T11:30:20.260Z,14.48
2023-05-19T11:32:51.721Z,11.65
2023-05-19T11:35:24.102Z,14.07
2023-05-19T11:37:57.235Z,18.48
2023-05-19T11:40:29.693Z,12.55
2023-05-19T11:43:01.142Z,16.05
2023-05-19T11:45:34.784Z,16.27
2023-05-19T11:48:13.221Z,14.70
2023-05-19T11:50:46.099Z,16.23
2023-05-19T11:53:23.391Z,12.63
2023-05-19T11:55:54.903Z,17.52
2023-05-19T11:58:29.377Z,16.73
2023-05-19T12:01:06.400Z,13.50
2023-05-19T12:03:37.687Z,13.95
2023-05-19T12:06:10.014Z,17.92
2023-05-19T12:08:41.585Z,18.67
2023-05-19T12:11:18.229Z,29.00
2023-05-19T12:13:52.361Z,21.88
2023-05-19T12:16:24.292Z,17.65
2023-05-19T12:21:33.806Z,16.30
2023-05-19T12:24:07.449Z,15.20
2023-05-19T12:26:39.206Z,24.88
2023-05-19T12:29:10.462Z,16.48
2023-05-19T12:31:43.241Z,15.35
2023-05-19T12:34:15.046Z,12.50
2023-05-19T12:36:46.653Z,17.08
2023-05-19T12:39:19.516Z,18.00
2023-05-19T12:41:52.298Z,12.50
2023-05-19T12:44:23.524Z,13.48
2023-05-19T12:49:28.663Z,17.25
2023-05-19T12:52:11.868Z,15.98
2023-05-19T12:54:44.405Z,13.50
2023-05-19T12:57:18.935Z,14.88
2023-05-19T12:59:51.923Z,13.68
2023-05-19T13:02:23.950Z,18.92
2023-05-19T13:04:55.975Z,11.00
2023-05-19T13:07:28.688Z,20.20
2023-05-19T13:10:00.216Z,19.45
2023-05-19T13:12:33.909Z,11.27
2023-05-19T13:15:05.077Z,11.07
2023-05-19T13:17:38.145Z,12.18
2023-05-19T13:20:13.510Z,14.90
2023-05-19T13:22:45.282Z,9.48
2023-05-19T13:25:17.354Z,15.30
2023-05-19T13:27:49.992Z,13.13
2023-05-19T13:30:23.582Z,23.90
2023-05-19T13:32:55.289Z,21.42
2023-05-19T13:35:27.816Z,13.63
2023-05-19T13:37:59.459Z,20.40
2023-05-19T13:40:34.384Z,15.95
2023-05-19T13:43:10.268Z,12.98
2023-05-19T13:45:43.735Z,22.30
2023-05-19T13:48:16.101Z,23.02
2023-05-19T13:50:48.686Z,30.90
2023-05-19T13:53:21.159Z,26.85
2023-05-19T13:55:54.458Z,17.95
2023-05-19T13:58:26.225Z,21.30
2023-05-19T14:01:01.554Z,23.83
2023-05-19T14:03:33.107Z,19.00
2023-05-19T14:06:07.048Z,17.65
2023-05-19T14:08:38.482Z,21.98
2023-05-19T14:11:09.807Z,35.63
2023-05-19T14:13:43.336Z,17.50
2023-05-19T14:16:14.782Z,31.00
2023-05-19T14:18:47.129Z,41.17
2023-05-19T14:21:21.406Z,32.00
2023-05-19T14:23:55.669Z,21.38
2023-05-19T14:26:29.329Z,30.73
2023-05-19T14:29:02.201Z,32.20
2023-05-19T14:31:35.564Z,49.95
2023-05-19T14:34:07.437Z,19.75
2023-05-19T14:36:38.756Z,28.42
2023-05-19T14:39:11.806Z,29.13
2023-05-19T14:41:43.270Z,28.52
2023-05-19T14:44:15.023Z,23.30
2023-05-19T14:46:46.680Z,28.08
2023-05-19T14:49:18.544Z,27.33
2023-05-19T14:51:49.804Z,19.77
2023-05-19T14:54:21.505Z,19.90
2023-05-19T14:56:57.173Z,30.05
2023-05-19T14:59:28.823Z,17.75
2023-05-19T15:02:04.782Z,16.58
2023-05-19T15:07:11.413Z,15.85
2023-05-19T15:09:43.049Z,17.42
2023-05-19T15:12:14.572Z,25.08
2023-05-19T15:14:48.762Z,16.83
2023-05-19T15:17:20.501Z,8.77
2023-05-19T15:19:52.243Z,11.20
2023-05-19T15:22:23.884Z,13.57
2023-05-19T15:24:55.935Z,20.35
2023-05-19T15:27:27.259Z,12.77
2023-05-19T15:30:00.525Z,9.15
2023-05-19T15:32:32.231Z,10.45
2023-05-19T15:35:03.938Z,8.90
2023-05-19T15:37:35.404Z,13.53
2023-05-19T15:40:07.534Z,11.00
2023-05-19T15:42:39.096Z,8.93
2023-05-19T15:45:13.380Z,10.05
2023-05-19T15:47:44.698Z,12.32
2023-05-19T15:50:16.897Z,17.23
2023-05-19T15:52:51.305Z,9.68
2023-05-19T15:55:23.013Z,7.43
2023-05-19T15:57:57.281Z,8.65
2023-05-19T16:00:30.115Z,11.27
2023-05-19T16:03:01.561Z,11.40
2023-05-19T16:05:33.192Z,7.25
2023-05-19T16:08:06.508Z,19.57
2023-05-19T16:10:41.197Z,16.98
2023-05-19T16:13:12.607Z,17.40
2023-05-19T16:15:52.220Z,10.85
2023-05-19T16:18:24.355Z,16.88
2023-05-19T16:20:57.958Z,9.18
2023-05-19T16:23:32.356Z,11.02
2023-05-19T16:26:04.180Z,7.18
2023-05-19T16:28:35.487Z,7.80
2023-05-19T16:31:08.566Z,11.50
2023-05-19T16:33:41.595Z,16.47
2023-05-19T16:36:13.357Z,17.63
2023-05-19T16:38:44.599Z,11.37
2023-05-19T16:41:16.085Z,10.05
2023-05-19T16:43:47.354Z,11.07
2023-05-19T16:46:18.832Z,12.70
2023-05-19T16:48:50.164Z,9.17
2023-05-19T16:51:23.155Z,10.48
2023-05-19T16:53:54.356Z,7.97
2023-05-19T16:56:25.856Z,8.05
2023-05-19T16:58:57.037Z,7.20
2023-05-19T17:01:28.630Z,7.93
2023-05-19T17:03:59.850Z,7.67
2023-05-19T17:06:31.566Z,8.52
2023-05-19T17:09:04.092Z,10.47
2023-05-19T17:11:38.211Z,10.80
2023-05-19T17:14:10.620Z,7.27
2023-05-19T17:16:43.714Z,7.95
2023-05-19T17:19:15.135Z,9.45
2023-05-19T17:24:17.830Z,9.07
2023-05-19T17:26:49.157Z,7.38
2023-05-19T17:29:20.335Z,7.40
2023-05-19T17:31:52.344Z,8.65
2023-05-19T17:34:23.604Z,7.80
2023-05-19T17:36:54.955Z,8.50
2023-05-19T17:39:26.452Z,11.85
2023-05-19T17:44:28.677Z,8.02
2023-05-19T17:47:00.361Z,10.20
2023-05-19T17:49:31.441Z,8.33
2023-05-19T17:52:03.036Z,11.20
2023-05-19T17:54:34.539Z,8.97
2023-05-19T17:57:09.578Z,7.90
2023-05-19T17:59:41.188Z,7.13
2023-05-19T18:02:16.663Z,8.73
2023-05-19T18:04:48.173Z,10.35
2023-05-19T18:07:21.149Z,7.93
2023-05-19T18:09:54.221Z,8.52
2023-05-19T18:12:25.671Z,8.70
2023-05-19T18:14:56.825Z,8.20
2023-05-19T18:17:28.570Z,6.82
2023-05-19T18:19:59.524Z,10.43
2023-05-19T18:22:30.816Z,7.17
2023-05-19T18:25:01.799Z,8.57
2023-05-19T18:27:34.779Z,10.00
2023-05-19T18:30:05.896Z,8.95
2023-05-19T18:32:37.025Z,8.73
2023-05-19T18:35:08.495Z,7.78
2023-05-19T18:37:39.561Z,8.70
2023-05-19T18:40:10.855Z,13.27
2023-05-19T18:42:41.833Z,7.93
2023-05-19T18:45:13.056Z,8.30
2023-05-19T18:47:44.173Z,8.20
2023-05-19T18:50:15.760Z,7.72
2023-05-19T18:52:47.044Z,7.97
2023-05-19T18:55:18.116Z,8.77
2023-05-19T18:57:55.779Z,7.97
2023-05-19T19:00:30.029Z,7.75
2023-05-19T19:03:01.099Z,8.52
2023-05-19T19:05:32.269Z,8.60
2023-05-19T19:08:03.761Z,8.85
2023-05-19T19:10:40.484Z,8.15
2023-05-19T19:13:11.373Z,7.95
2023-05-19T19:15:42.075Z,9.02
2023-05-19T19:18:14.087Z,8.27
2023-05-19T19:20:44.873Z,9.40
2023-05-19T19:23:15.773Z,8.32
2023-05-19T19:25:46.501Z,8.18
2023-05-19T19:28:17.852Z,7.95
2023-05-19T19:30:51.874Z,8.18
2023-05-19T19:33:23.089Z,8.13
2023-05-19T19:35:53.763Z,8.23
2023-05-19T19:38:24.531Z,8.02
2023-05-19T19:40:55.369Z,7.63
2023-05-19T19:43:26.565Z,7.28
2023-05-19T19:46:04.347Z,8.40
2023-05-19T19:48:35.384Z,9.43
2023-05-19T19:51:06.115Z,8.15
2023-05-19T19:53:37.252Z,9.83
2023-05-19T19:56:08.573Z,9.45
2023-05-19T19:58:39.657Z,9.75
2023-05-19T20:01:10.496Z,7.65
2023-05-19T20:03:41.395Z,7.05
2023-05-19T20:06:12.084Z,11.80
2023-05-19T20:08:43.201Z,15.45
2023-05-19T20:11:17.926Z,7.18
2023-05-19T20:13:48.909Z,7.97
2023-05-19T20:16:19.751Z,8.13
2023-05-19T20:18:51.853Z,7.28
2023-05-19T20:21:22.592Z,7.40
2023-05-19T20:23:53.468Z,7.78
2023-05-19T20:26:24.174Z,7.22
2023-05-19T20:28:55.340Z,8.57
2023-05-19T20:31:27.425Z,7.45
2023-05-19T20:33:59.336Z,7.10
2023-05-19T20:36:31.664Z,7.30
2023-05-19T20:39:02.817Z,12.77
2023-05-19T20:41:33.392Z,7.93
2023-05-19T20:44:07.772Z,7.55
2023-05-19T20:46:38.571Z,8.88
2023-05-19T20:49:09.426Z,8.50
2023-05-19T20:51:40.094Z,8.20
2023-05-19T20:54:10.886Z,7.78
2023-05-19T20:56:41.793Z,7.05
2023-05-19T20:59:12.827Z,7.63
2023-05-19T21:01:47.442Z,12.80
2023-05-19T21:04:18.461Z,6.63
2023-05-19T21:06:49.190Z,6.82
2023-05-19T21:09:20.309Z,6.63
2023-05-19T21:11:50.999Z,7.20
2023-05-19T21:14:22.612Z,6.82
2023-05-19T21:16:57.451Z,7.83
2023-05-19T21:19:28.914Z,7.85
2023-05-19T21:21:59.677Z,6.78
2023-05-19T21:24:30.440Z,6.80
2023-05-19T21:27:01.060Z,6.88
2023-05-19T21:29:32.022Z,7.75
2023-05-19T21:32:03.100Z,7.35
2023-05-19T21:34:34.230Z,6.72
2023-05-19T21:37:04.899Z,6.97
2023-05-19T21:39:36.251Z,6.30
2023-05-19T21:42:07.813Z,6.47
2023-05-19T21:47:09.870Z,7.03
2023-05-19T21:49:41.527Z,6.38
2023-05-19T21:52:12.476Z,6.70
2023-05-19T21:54:43.474Z,6.93
2023-05-19T21:57:14.187Z,7.00
2023-05-19T21:59:46.193Z,7.47
2023-05-19T22:02:16.892Z,7.38
2023-05-19T22:04:47.888Z,7.82
2023-05-19T22:07:18.576Z,8.65
2023-05-19T22:09:49.738Z,6.72
2023-05-19T22:12:20.490Z,6.50
2023-05-19T22:14:51.660Z,11.88
2023-05-19T22:17:22.387Z,6.43
2023-05-19T22:19:53.865Z,6.38
2023-05-19T22:22:24.540Z,7.15
2023-05-19T22:24:55.477Z,6.38
2023-05-19T22:27:26.229Z,6.63
2023-05-19T22:29:57.081Z,6.82
2023-05-19T22:32:28.154Z,7.72
2023-05-19T22:34:59.044Z,7.97
2023-05-19T22:37:30.392Z,9.90
2023-05-19T22:40:01.266Z,17.33
2023-05-19T22:42:32.101Z,11.00
2023-05-19T22:45:03.070Z,15.13
2023-05-19T22:47:33.789Z,12.15
2023-05-19T22:50:04.807Z,14.10
2023-05-19T22:52:35.459Z,11.45
2023-05-19T22:55:06.990Z,9.20
2023-05-19T22:57:37.600Z,15.85
2023-05-19T23:00:09.667Z,12.93
2023-05-19T23:02:40.339Z,9.23
2023-05-19T23:05:11.803Z,13.70
2023-05-19T23:07:42.598Z,23.40
2023-05-19T23:10:13.715Z,26.88
2023-05-19T23:12:44.363Z,24.33
2023-05-19T23:15:15.458Z,31.45
2023-05-19T23:17:46.180Z,30.88
2023-05-19T23:20:17.883Z,27.83
2023-05-19T23:22:48.535Z,22.10
2023-05-19T23:25:19.676Z,38.50
2023-05-19T23:27:50.400Z,37.67
2023-05-19T23:30:21.273Z,34.83
2023-05-19T23:32:52.052Z,29.40
2023-05-19T23:35:22.993Z,31.00
2023-05-19T23:37:55.183Z,31.45
2023-05-19T23:40:26.020Z,33.25
2023-05-19T23:42:56.688Z,25.30
2023-05-19T23:45:27.751Z,28.95
2023-05-19T23:47:58.498Z,31.23
2023-05-19T23:50:29.394Z,29.00
2023-05-19T23:53:00.153Z,30.98
2023-05-19T23:55:30.949Z,29.95
2023-05-19T23:58:01.695Z,32.70
